sensor_id;sensor_type;location;lat;lon;timestamp;temperature;humidity
35127;DHT22;21300;52.006;5.798;2023-06-14T00:01:02;23.20;46.30
35127;DHT22;21300;52.006;5.798;2023-06-14T00:03:28;23.20;46.00
35127;DHT22;21300;52.006;5.798;2023-06-14T00:05:54;23.20;46.50
35127;DHT22;21300;52.006;5.798;2023-06-14T00:08:20;23.20;46.40
35127;DHT22;21300;52.006;5.798;2023-06-14T00:10:48;23.10;46.50
35127;DHT22;21300;52.006;5.798;2023-06-14T00:13:14;23.10;46.50
35127;DHT22;21300;52.006;5.798;2023-06-14T00:15:40;23.10;46.20
35127;DHT22;21300;52.006;5.798;2023-06-14T00:18:06;23.10;46.40
35127;DHT22;21300;52.006;5.798;2023-06-14T00:20:32;23.00;46.70
35127;DHT22;21300;52.006;5.798;2023-06-14T00:23:02;23.00;46.40
35127;DHT22;21300;52.006;5.798;2023-06-14T00:25:27;23.00;46.80
35127;DHT22;21300;52.006;5.798;2023-06-14T00:27:54;23.00;47.50
35127;DHT22;21300;52.006;5.798;2023-06-14T00:30:20;22.90;46.30
35127;DHT22;21300;52.006;5.798;2023-06-14T00:32:47;22.90;47.50
35127;DHT22;21300;52.006;5.798;2023-06-14T00:35:13;22.90;46.80
35127;DHT22;21300;52.006;5.798;2023-06-14T00:37:39;22.90;46.70
35127;DHT22;21300;52.006;5.798;2023-06-14T00:40:06;22.90;46.90
35127;DHT22;21300;52.006;5.798;2023-06-14T00:42:32;22.90;47.70
35127;DHT22;21300;52.006;5.798;2023-06-14T00:44:58;22.80;47.10
35127;DHT22;21300;52.006;5.798;2023-06-14T00:47:24;22.80;47.10
35127;DHT22;21300;52.006;5.798;2023-06-14T00:49:50;22.80;47.20
35127;DHT22;21300;52.006;5.798;2023-06-14T00:52:17;22.80;47.00
35127;DHT22;21300;52.006;5.798;2023-06-14T00:54:43;22.70;47.20
35127;DHT22;21300;52.006;5.798;2023-06-14T00:57:12;22.70;47.70
35127;DHT22;21300;52.006;5.798;2023-06-14T00:59:42;22.70;47.30
35127;DHT22;21300;52.006;5.798;2023-06-14T01:02:09;22.70;47.40
35127;DHT22;21300;52.006;5.798;2023-06-14T01:04:34;22.70;47.50
35127;DHT22;21300;52.006;5.798;2023-06-14T01:07:09;22.60;47.40
35127;DHT22;21300;52.006;5.798;2023-06-14T01:12:48;22.60;47.60
35127;DHT22;21300;52.006;5.798;2023-06-14T01:15:17;22.50;47.70
35127;DHT22;21300;52.006;5.798;2023-06-14T01:17:44;22.50;47.60
35127;DHT22;21300;52.006;5.798;2023-06-14T01:20:12;22.50;47.70
35127;DHT22;21300;52.006;5.798;2023-06-14T01:22:52;22.50;47.80
35127;DHT22;21300;52.006;5.798;2023-06-14T01:25:19;22.40;47.70
35127;DHT22;21300;52.006;5.798;2023-06-14T01:28:05;22.40;47.80
35127;DHT22;21300;52.006;5.798;2023-06-14T01:30:43;22.40;47.90
35127;DHT22;21300;52.006;5.798;2023-06-14T01:33:19;22.40;48.00
35127;DHT22;21300;52.006;5.798;2023-06-14T01:35:47;22.30;48.00
35127;DHT22;21300;52.006;5.798;2023-06-14T01:38:14;22.30;48.10
35127;DHT22;21300;52.006;5.798;2023-06-14T01:40:42;22.30;48.10
35127;DHT22;21300;52.006;5.798;2023-06-14T01:43:10;22.30;48.00
35127;DHT22;21300;52.006;5.798;2023-06-14T01:45:36;22.30;48.10
35127;DHT22;21300;52.006;5.798;2023-06-14T01:48:03;22.20;48.10
35127;DHT22;21300;52.006;5.798;2023-06-14T01:50:31;22.20;48.10
35127;DHT22;21300;52.006;5.798;2023-06-14T01:52:56;22.20;48.20
35127;DHT22;21300;52.006;5.798;2023-06-14T01:55:22;22.20;48.20
35127;DHT22;21300;52.006;5.798;2023-06-14T01:57:50;22.20;48.30
35127;DHT22;21300;52.006;5.798;2023-06-14T02:00:16;22.10;48.20
35127;DHT22;21300;52.006;5.798;2023-06-14T02:02:44;22.10;48.10
35127;DHT22;21300;52.006;5.798;2023-06-14T02:05:10;22.10;48.30
35127;DHT22;21300;52.006;5.798;2023-06-14T02:07:36;22.10;48.30
35127;DHT22;21300;52.006;5.798;2023-06-14T02:10:03;22.00;48.30
35127;DHT22;21300;52.006;5.798;2023-06-14T02:12:28;22.00;48.40
35127;DHT22;21300;52.006;5.798;2023-06-14T02:14:54;22.00;48.40
35127;DHT22;21300;52.006;5.798;2023-06-14T02:17:19;22.00;49.10
35127;DHT22;21300;52.006;5.798;2023-06-14T02:19:45;22.00;48.50
35127;DHT22;21300;52.006;5.798;2023-06-14T02:22:11;21.90;48.50
35127;DHT22;21300;52.006;5.798;2023-06-14T02:24:37;21.90;48.60
35127;DHT22;21300;52.006;5.798;2023-06-14T02:27:03;21.90;48.60
35127;DHT22;21300;52.006;5.798;2023-06-14T02:29:29;21.80;48.60
35127;DHT22;21300;52.006;5.798;2023-06-14T02:31:54;21.90;48.70
35127;DHT22;21300;52.006;5.798;2023-06-14T02:34:20;21.80;48.60
35127;DHT22;21300;52.006;5.798;2023-06-14T02:36:47;21.80;48.60
35127;DHT22;21300;52.006;5.798;2023-06-14T02:39:13;21.80;48.70
35127;DHT22;21300;52.006;5.798;2023-06-14T02:41:39;21.70;48.70
35127;DHT22;21300;52.006;5.798;2023-06-14T02:44:05;21.70;48.70
35127;DHT22;21300;52.006;5.798;2023-06-14T02:46:31;21.70;48.80
35127;DHT22;21300;52.006;5.798;2023-06-14T02:48:57;21.70;48.90
35127;DHT22;21300;52.006;5.798;2023-06-14T02:51:23;21.70;48.80
35127;DHT22;21300;52.006;5.798;2023-06-14T02:53:48;21.60;48.80
35127;DHT22;21300;52.006;5.798;2023-06-14T02:56:14;21.60;48.90
35127;DHT22;21300;52.006;5.798;2023-06-14T02:58:42;21.60;49.50
35127;DHT22;21300;52.006;5.798;2023-06-14T03:01:08;21.60;48.90
35127;DHT22;21300;52.006;5.798;2023-06-14T03:03:38;21.60;49.00
35127;DHT22;21300;52.006;5.798;2023-06-14T03:06:03;21.50;49.00
35127;DHT22;21300;52.006;5.798;2023-06-14T03:08:31;21.50;49.00
35127;DHT22;21300;52.006;5.798;2023-06-14T03:10:58;21.50;49.00
35127;DHT22;21300;52.006;5.798;2023-06-14T03:13:24;21.50;49.00
35127;DHT22;21300;52.006;5.798;2023-06-14T03:15:50;21.50;49.00
35127;DHT22;21300;52.006;5.798;2023-06-14T03:18:18;21.40;49.10
35127;DHT22;21300;52.006;5.798;2023-06-14T03:20:44;21.40;49.10
35127;DHT22;21300;52.006;5.798;2023-06-14T03:23:11;21.40;49.20
35127;DHT22;21300;52.006;5.798;2023-06-14T03:25:37;21.40;49.10
35127;DHT22;21300;52.006;5.798;2023-06-14T03:28:04;21.30;49.10
35127;DHT22;21300;52.006;5.798;2023-06-14T03:30:30;21.30;49.10
35127;DHT22;21300;52.006;5.798;2023-06-14T03:32:57;21.30;49.20
35127;DHT22;21300;52.006;5.798;2023-06-14T03:35:23;21.30;49.20
35127;DHT22;21300;52.006;5.798;2023-06-14T03:37:49;21.30;49.30
35127;DHT22;21300;52.006;5.798;2023-06-14T03:40:18;21.20;49.30
35127;DHT22;21300;52.006;5.798;2023-06-14T03:42:43;21.20;49.30
35127;DHT22;21300;52.006;5.798;2023-06-14T03:45:09;21.20;49.30
35127;DHT22;21300;52.006;5.798;2023-06-14T03:47:35;21.20;49.40
35127;DHT22;21300;52.006;5.798;2023-06-14T03:50:02;21.20;49.40
35127;DHT22;21300;52.006;5.798;2023-06-14T03:52:29;21.20;49.40
35127;DHT22;21300;52.006;5.798;2023-06-14T03:54:54;21.10;49.30
35127;DHT22;21300;52.006;5.798;2023-06-14T03:57:21;21.10;49.50
35127;DHT22;21300;52.006;5.798;2023-06-14T03:59:47;21.10;49.50
35127;DHT22;21300;52.006;5.798;2023-06-14T04:02:12;21.10;49.50
35127;DHT22;21300;52.006;5.798;2023-06-14T04:04:41;21.00;49.30
35127;DHT22;21300;52.006;5.798;2023-06-14T04:07:10;21.00;49.60
35127;DHT22;21300;52.006;5.798;2023-06-14T04:09:37;21.00;49.50
35127;DHT22;21300;52.006;5.798;2023-06-14T04:12:03;21.00;49.60
35127;DHT22;21300;52.006;5.798;2023-06-14T04:14:28;21.00;49.70
35127;DHT22;21300;52.006;5.798;2023-06-14T04:16:54;20.90;49.50
35127;DHT22;21300;52.006;5.798;2023-06-14T04:19:20;21.00;49.80
35127;DHT22;21300;52.006;5.798;2023-06-14T04:21:45;21.00;49.70
35127;DHT22;21300;52.006;5.798;2023-06-14T04:24:11;21.00;49.70
35127;DHT22;21300;52.006;5.798;2023-06-14T04:26:43;21.00;49.70
35127;DHT22;21300;52.006;5.798;2023-06-14T04:29:14;21.00;49.70
35127;DHT22;21300;52.006;5.798;2023-06-14T04:31:42;21.00;49.60
35127;DHT22;21300;52.006;5.798;2023-06-14T04:34:07;21.00;49.60
35127;DHT22;21300;52.006;5.798;2023-06-14T04:36:34;21.00;49.60
35127;DHT22;21300;52.006;5.798;2023-06-14T04:39:03;21.00;49.50
35127;DHT22;21300;52.006;5.798;2023-06-14T04:41:32;21.00;49.50
35127;DHT22;21300;52.006;5.798;2023-06-14T04:43:59;21.10;49.50
35127;DHT22;21300;52.006;5.798;2023-06-14T04:46:30;21.00;49.50
35127;DHT22;21300;52.006;5.798;2023-06-14T04:48:58;21.10;49.40
35127;DHT22;21300;52.006;5.798;2023-06-14T04:51:31;21.10;49.40
35127;DHT22;21300;52.006;5.798;2023-06-14T04:53:59;21.10;49.30
35127;DHT22;21300;52.006;5.798;2023-06-14T04:56:24;21.10;49.20
35127;DHT22;21300;52.006;5.798;2023-06-14T04:58:51;20.90;49.10
35127;DHT22;21300;52.006;5.798;2023-06-14T05:01:18;20.70;49.20
35127;DHT22;21300;52.006;5.798;2023-06-14T05:03:44;20.60;49.30
35127;DHT22;21300;52.006;5.798;2023-06-14T05:06:11;20.60;49.60
35127;DHT22;21300;52.006;5.798;2023-06-14T05:08:37;20.50;49.70
35127;DHT22;21300;52.006;5.798;2023-06-14T05:11:03;20.60;49.70
35127;DHT22;21300;52.006;5.798;2023-06-14T05:13:28;20.50;49.60
35127;DHT22;21300;52.006;5.798;2023-06-14T05:15:54;20.50;49.60
35127;DHT22;21300;52.006;5.798;2023-06-14T05:18:19;20.50;49.50
35127;DHT22;21300;52.006;5.798;2023-06-14T05:20:45;20.50;49.40
35127;DHT22;21300;52.006;5.798;2023-06-14T05:23:11;20.50;49.40
35127;DHT22;21300;52.006;5.798;2023-06-14T05:25:42;20.50;49.40
35127;DHT22;21300;52.006;5.798;2023-06-14T05:28:08;20.60;49.20
35127;DHT22;21300;52.006;5.798;2023-06-14T05:30:34;20.50;49.20
35127;DHT22;21300;52.006;5.798;2023-06-14T05:32:59;20.70;49.10
35127;DHT22;21300;52.006;5.798;2023-06-14T05:35:25;20.70;49.00
35127;DHT22;21300;52.006;5.798;2023-06-14T05:37:52;20.80;48.90
35127;DHT22;21300;52.006;5.798;2023-06-14T05:40:19;20.70;49.00
35127;DHT22;21300;52.006;5.798;2023-06-14T05:42:45;20.80;49.20
35127;DHT22;21300;52.006;5.798;2023-06-14T05:45:11;20.90;49.20
35127;DHT22;21300;52.006;5.798;2023-06-14T05:47:37;21.00;49.20
35127;DHT22;21300;52.006;5.798;2023-06-14T05:50:03;21.10;49.00
35127;DHT22;21300;52.006;5.798;2023-06-14T05:52:28;21.20;49.00
35127;DHT22;21300;52.006;5.798;2023-06-14T05:54:55;21.30;49.00
35127;DHT22;21300;52.006;5.798;2023-06-14T05:57:20;21.30;49.40
35127;DHT22;21300;52.006;5.798;2023-06-14T05:59:46;21.40;48.80
35127;DHT22;21300;52.006;5.798;2023-06-14T06:02:12;21.50;48.70
35127;DHT22;21300;52.006;5.798;2023-06-14T06:04:37;21.50;49.20
35127;DHT22;21300;52.006;5.798;2023-06-14T06:07:03;21.60;48.50
35127;DHT22;21300;52.006;5.798;2023-06-14T06:09:29;21.60;48.50
35127;DHT22;21300;52.006;5.798;2023-06-14T06:11:55;21.70;48.40
35127;DHT22;21300;52.006;5.798;2023-06-14T06:14:20;21.70;48.30
35127;DHT22;21300;52.006;5.798;2023-06-14T06:16:46;21.80;48.20
35127;DHT22;21300;52.006;5.798;2023-06-14T06:19:12;21.90;48.10
35127;DHT22;21300;52.006;5.798;2023-06-14T06:21:37;21.60;47.60
35127;DHT22;21300;52.006;5.798;2023-06-14T06:24:04;21.70;47.80
35127;DHT22;21300;52.006;5.798;2023-06-14T06:26:31;21.80;47.70
35127;DHT22;21300;52.006;5.798;2023-06-14T06:28:57;21.90;47.70
35127;DHT22;21300;52.006;5.798;2023-06-14T06:31:23;22.00;47.70
35127;DHT22;21300;52.006;5.798;2023-06-14T06:33:49;22.00;47.50
35127;DHT22;21300;52.006;5.798;2023-06-14T06:36:15;22.20;47.60
35127;DHT22;21300;52.006;5.798;2023-06-14T06:38:41;22.00;47.20
35127;DHT22;21300;52.006;5.798;2023-06-14T06:41:07;22.10;47.40
35127;DHT22;21300;52.006;5.798;2023-06-14T06:43:33;22.20;47.20
35127;DHT22;21300;52.006;5.798;2023-06-14T06:45:58;22.30;47.20
35127;DHT22;21300;52.006;5.798;2023-06-14T06:48:24;22.30;47.10
35127;DHT22;21300;52.006;5.798;2023-06-14T06:50:50;22.40;47.10
35127;DHT22;21300;52.006;5.798;2023-06-14T06:53:16;22.40;47.10
35127;DHT22;21300;52.006;5.798;2023-06-14T06:55:44;22.40;47.00
35127;DHT22;21300;52.006;5.798;2023-06-14T06:58:09;22.50;47.00
35127;DHT22;21300;52.006;5.798;2023-06-14T07:00:35;22.50;47.00
35127;DHT22;21300;52.006;5.798;2023-06-14T07:03:01;22.50;47.00
35127;DHT22;21300;52.006;5.798;2023-06-14T07:05:27;22.50;47.00
35127;DHT22;21300;52.006;5.798;2023-06-14T07:07:52;22.60;46.90
35127;DHT22;21300;52.006;5.798;2023-06-14T07:10:18;22.60;46.90
35127;DHT22;21300;52.006;5.798;2023-06-14T07:12:44;22.70;46.80
35127;DHT22;21300;52.006;5.798;2023-06-14T07:15:10;22.70;46.80
35127;DHT22;21300;52.006;5.798;2023-06-14T07:17:36;22.70;46.60
35127;DHT22;21300;52.006;5.798;2023-06-14T07:20:03;22.70;46.70
35127;DHT22;21300;52.006;5.798;2023-06-14T07:22:33;22.80;46.70
35127;DHT22;21300;52.006;5.798;2023-06-14T07:24:58;22.80;47.20
35127;DHT22;21300;52.006;5.798;2023-06-14T07:27:24;22.80;46.60
35127;DHT22;21300;52.006;5.798;2023-06-14T07:29:49;22.80;46.60
35127;DHT22;21300;52.006;5.798;2023-06-14T07:32:15;22.90;46.60
35127;DHT22;21300;52.006;5.798;2023-06-14T07:34:40;22.90;46.60
35127;DHT22;21300;52.006;5.798;2023-06-14T07:37:06;22.90;46.50
35127;DHT22;21300;52.006;5.798;2023-06-14T07:39:31;22.90;46.50
35127;DHT22;21300;52.006;5.798;2023-06-14T07:41:57;22.90;46.40
35127;DHT22;21300;52.006;5.798;2023-06-14T07:44:22;23.00;46.50
35127;DHT22;21300;52.006;5.798;2023-06-14T07:46:48;23.00;46.40
35127;DHT22;21300;52.006;5.798;2023-06-14T07:49:14;23.00;46.50
35127;DHT22;21300;52.006;5.798;2023-06-14T07:51:40;23.10;46.50
35127;DHT22;21300;52.006;5.798;2023-06-14T07:54:06;23.10;46.50
35127;DHT22;21300;52.006;5.798;2023-06-14T07:56:33;23.10;46.40
35127;DHT22;21300;52.006;5.798;2023-06-14T07:58:58;23.10;46.30
35127;DHT22;21300;52.006;5.798;2023-06-14T08:01:24;23.10;46.40
35127;DHT22;21300;52.006;5.798;2023-06-14T08:03:51;23.20;46.30
35127;DHT22;21300;52.006;5.798;2023-06-14T08:06:16;23.20;46.30
35127;DHT22;21300;52.006;5.798;2023-06-14T08:08:42;23.20;46.30
35127;DHT22;21300;52.006;5.798;2023-06-14T08:11:07;23.20;46.40
35127;DHT22;21300;52.006;5.798;2023-06-14T08:13:33;23.20;46.30
35127;DHT22;21300;52.006;5.798;2023-06-14T08:15:59;23.30;46.30
35127;DHT22;21300;52.006;5.798;2023-06-14T08:18:26;23.30;46.20
35127;DHT22;21300;52.006;5.798;2023-06-14T08:20:52;23.30;46.30
35127;DHT22;21300;52.006;5.798;2023-06-14T08:23:19;23.30;46.30
35127;DHT22;21300;52.006;5.798;2023-06-14T08:25:46;23.30;46.30
35127;DHT22;21300;52.006;5.798;2023-06-14T08:28:12;23.30;46.50
35127;DHT22;21300;52.006;5.798;2023-06-14T08:30:38;23.30;46.50
35127;DHT22;21300;52.006;5.798;2023-06-14T08:33:03;23.30;46.40
35127;DHT22;21300;52.006;5.798;2023-06-14T08:35:29;23.30;46.30
35127;DHT22;21300;52.006;5.798;2023-06-14T08:37:54;23.40;46.30
35127;DHT22;21300;52.006;5.798;2023-06-14T08:40:23;23.40;46.30
35127;DHT22;21300;52.006;5.798;2023-06-14T08:42:51;23.40;46.50
35127;DHT22;21300;52.006;5.798;2023-06-14T08:45:19;23.40;45.70
35127;DHT22;21300;52.006;5.798;2023-06-14T08:47:45;23.30;43.80
35127;DHT22;21300;52.006;5.798;2023-06-14T08:50:11;23.40;44.30
35127;DHT22;21300;52.006;5.798;2023-06-14T08:52:38;23.50;44.70
35127;DHT22;21300;52.006;5.798;2023-06-14T08:55:14;23.50;44.80
35127;DHT22;21300;52.006;5.798;2023-06-14T08:57:41;23.50;44.90
35127;DHT22;21300;52.006;5.798;2023-06-14T09:00:07;23.50;44.90
35127;DHT22;21300;52.006;5.798;2023-06-14T09:02:38;23.50;45.20
35127;DHT22;21300;52.006;5.798;2023-06-14T09:05:12;23.50;45.40
35127;DHT22;21300;52.006;5.798;2023-06-14T09:07:41;23.60;45.80
35127;DHT22;21300;52.006;5.798;2023-06-14T09:10:08;23.60;45.70
35127;DHT22;21300;52.006;5.798;2023-06-14T09:12:35;23.60;45.80
35127;DHT22;21300;52.006;5.798;2023-06-14T09:15:01;23.60;46.10
35127;DHT22;21300;52.006;5.798;2023-06-14T09:17:32;23.60;46.00
35127;DHT22;21300;52.006;5.798;2023-06-14T09:19:59;23.70;46.30
35127;DHT22;21300;52.006;5.798;2023-06-14T09:22:24;23.70;46.10
35127;DHT22;21300;52.006;5.798;2023-06-14T09:24:50;23.70;46.30
35127;DHT22;21300;52.006;5.798;2023-06-14T09:27:16;23.70;47.00
35127;DHT22;21300;52.006;5.798;2023-06-14T09:29:41;23.70;46.40
35127;DHT22;21300;52.006;5.798;2023-06-14T09:32:07;23.70;46.40
35127;DHT22;21300;52.006;5.798;2023-06-14T09:34:34;23.80;46.50
35127;DHT22;21300;52.006;5.798;2023-06-14T09:37:01;23.80;46.60
35127;DHT22;21300;52.006;5.798;2023-06-14T09:39:26;23.80;46.50
35127;DHT22;21300;52.006;5.798;2023-06-14T09:41:52;23.80;46.70
35127;DHT22;21300;52.006;5.798;2023-06-14T09:44:18;23.90;46.80
35127;DHT22;21300;52.006;5.798;2023-06-14T09:46:45;23.90;46.60
35127;DHT22;21300;52.006;5.798;2023-06-14T09:49:11;23.90;46.60
35127;DHT22;21300;52.006;5.798;2023-06-14T09:51:43;23.90;45.80
35127;DHT22;21300;52.006;5.798;2023-06-14T09:54:16;24.00;45.70
35127;DHT22;21300;52.006;5.798;2023-06-14T09:56:44;24.00;45.70
35127;DHT22;21300;52.006;5.798;2023-06-14T09:59:12;24.00;45.90
35127;DHT22;21300;52.006;5.798;2023-06-14T10:01:42;24.00;45.50
35127;DHT22;21300;52.006;5.798;2023-06-14T10:04:09;24.00;45.80
35127;DHT22;21300;52.006;5.798;2023-06-14T10:06:43;24.00;45.80
35127;DHT22;21300;52.006;5.798;2023-06-14T10:09:10;24.10;45.90
35127;DHT22;21300;52.006;5.798;2023-06-14T10:11:37;24.10;45.70
35127;DHT22;21300;52.006;5.798;2023-06-14T10:14:07;24.20;45.80
35127;DHT22;21300;52.006;5.798;2023-06-14T10:16:39;24.20;46.10
35127;DHT22;21300;52.006;5.798;2023-06-14T10:22:02;24.30;44.90
35127;DHT22;21300;52.006;5.798;2023-06-14T10:24:41;24.30;45.40
35127;DHT22;21300;52.006;5.798;2023-06-14T10:27:08;24.40;45.00
35127;DHT22;21300;52.006;5.798;2023-06-14T10:32:24;24.50;45.20
35127;DHT22;21300;52.006;5.798;2023-06-14T10:35:06;24.50;45.50
35127;DHT22;21300;52.006;5.798;2023-06-14T10:37:35;24.60;45.20
35127;DHT22;21300;52.006;5.798;2023-06-14T10:40:01;24.60;44.70
35127;DHT22;21300;52.006;5.798;2023-06-14T10:42:32;24.60;45.20
35127;DHT22;21300;52.006;5.798;2023-06-14T10:44:59;24.60;45.60
35127;DHT22;21300;52.006;5.798;2023-06-14T10:47:29;24.70;45.60
35127;DHT22;21300;52.006;5.798;2023-06-14T10:52:28;24.80;45.40
35127;DHT22;21300;52.006;5.798;2023-06-14T10:55:14;24.80;45.10
35127;DHT22;21300;52.006;5.798;2023-06-14T10:57:50;24.80;44.70
35127;DHT22;21300;52.006;5.798;2023-06-14T11:00:27;24.90;45.00
35127;DHT22;21300;52.006;5.798;2023-06-14T11:05:27;25.00;45.40
35127;DHT22;21300;52.006;5.798;2023-06-14T11:11:00;25.10;44.70
35127;DHT22;21300;52.006;5.798;2023-06-14T11:13:28;25.10;44.50
35127;DHT22;21300;52.006;5.798;2023-06-14T11:15:54;25.10;44.50
35127;DHT22;21300;52.006;5.798;2023-06-14T11:18:22;25.10;44.80
35127;DHT22;21300;52.006;5.798;2023-06-14T11:20:50;25.10;44.40
35127;DHT22;21300;52.006;5.798;2023-06-14T11:23:15;25.20;45.20
35127;DHT22;21300;52.006;5.798;2023-06-14T11:25:41;25.20;44.40
35127;DHT22;21300;52.006;5.798;2023-06-14T11:28:07;25.20;44.60
35127;DHT22;21300;52.006;5.798;2023-06-14T11:30:32;25.30;44.90
35127;DHT22;21300;52.006;5.798;2023-06-14T11:32:58;25.30;44.70
35127;DHT22;21300;52.006;5.798;2023-06-14T11:35:25;25.30;44.70
35127;DHT22;21300;52.006;5.798;2023-06-14T11:37:56;25.30;45.00
35127;DHT22;21300;52.006;5.798;2023-06-14T11:40:25;25.40;45.40
35127;DHT22;21300;52.006;5.798;2023-06-14T11:42:58;25.40;45.50
35127;DHT22;21300;52.006;5.798;2023-06-14T11:45:25;25.40;45.20
35127;DHT22;21300;52.006;5.798;2023-06-14T11:47:51;25.30;44.10
35127;DHT22;21300;52.006;5.798;2023-06-14T11:50:16;25.30;44.30
35127;DHT22;21300;52.006;5.798;2023-06-14T11:52:42;25.40;45.10
35127;DHT22;21300;52.006;5.798;2023-06-14T11:55:08;25.50;45.20
35127;DHT22;21300;52.006;5.798;2023-06-14T11:57:34;25.50;44.90
35127;DHT22;21300;52.006;5.798;2023-06-14T12:00:04;25.50;44.30
35127;DHT22;21300;52.006;5.798;2023-06-14T12:02:33;25.60;44.70
35127;DHT22;21300;52.006;5.798;2023-06-14T12:05:05;25.60;45.20
35127;DHT22;21300;52.006;5.798;2023-06-14T12:07:33;25.60;44.50
35127;DHT22;21300;52.006;5.798;2023-06-14T12:12:25;25.70;45.20
35127;DHT22;21300;52.006;5.798;2023-06-14T12:14:51;25.70;44.20
35127;DHT22;21300;52.006;5.798;2023-06-14T12:17:18;25.70;44.30
35127;DHT22;21300;52.006;5.798;2023-06-14T12:19:45;25.70;45.30
35127;DHT22;21300;52.006;5.798;2023-06-14T12:22:14;25.80;45.60
35127;DHT22;21300;52.006;5.798;2023-06-14T12:24:43;25.80;45.30
35127;DHT22;21300;52.006;5.798;2023-06-14T12:27:10;25.80;45.10
35127;DHT22;21300;52.006;5.798;2023-06-14T12:29:37;25.80;45.40
35127;DHT22;21300;52.006;5.798;2023-06-14T12:32:03;25.80;45.30
35127;DHT22;21300;52.006;5.798;2023-06-14T12:34:29;25.70;42.80
35127;DHT22;21300;52.006;5.798;2023-06-14T12:36:56;25.70;42.80
35127;DHT22;21300;52.006;5.798;2023-06-14T12:39:40;25.70;42.40
35127;DHT22;21300;52.006;5.798;2023-06-14T12:42:06;25.70;42.70
35127;DHT22;21300;52.006;5.798;2023-06-14T12:44:31;25.80;42.30
35127;DHT22;21300;52.006;5.798;2023-06-14T12:46:59;25.80;42.80
35127;DHT22;21300;52.006;5.798;2023-06-14T12:49:24;25.80;43.10
35127;DHT22;21300;52.006;5.798;2023-06-14T12:51:50;25.90;43.70
35127;DHT22;21300;52.006;5.798;2023-06-14T12:54:15;25.90;43.60
35127;DHT22;21300;52.006;5.798;2023-06-14T12:56:43;25.90;43.90
35127;DHT22;21300;52.006;5.798;2023-06-14T12:59:10;25.90;44.10
35127;DHT22;21300;52.006;5.798;2023-06-14T13:01:38;25.90;43.50
35127;DHT22;21300;52.006;5.798;2023-06-14T13:04:04;25.90;43.20
35127;DHT22;21300;52.006;5.798;2023-06-14T13:06:30;25.90;43.70
35127;DHT22;21300;52.006;5.798;2023-06-14T13:08:56;26.00;43.60
35127;DHT22;21300;52.006;5.798;2023-06-14T13:11:24;26.00;43.00
35127;DHT22;21300;52.006;5.798;2023-06-14T13:13:49;26.00;43.30
35127;DHT22;21300;52.006;5.798;2023-06-14T13:16:15;25.90;43.40
35127;DHT22;21300;52.006;5.798;2023-06-14T13:18:41;26.00;43.60
35127;DHT22;21300;52.006;5.798;2023-06-14T13:21:06;26.00;43.60
35127;DHT22;21300;52.006;5.798;2023-06-14T13:23:32;26.00;44.20
35127;DHT22;21300;52.006;5.798;2023-06-14T13:25:57;26.00;44.40
35127;DHT22;21300;52.006;5.798;2023-06-14T13:28:23;26.00;44.40
35127;DHT22;21300;52.006;5.798;2023-06-14T13:30:49;26.00;44.50
35127;DHT22;21300;52.006;5.798;2023-06-14T13:33:15;26.00;44.10
35127;DHT22;21300;52.006;5.798;2023-06-14T13:35:40;26.00;44.50
35127;DHT22;21300;52.006;5.798;2023-06-14T13:38:06;26.10;44.40
35127;DHT22;21300;52.006;5.798;2023-06-14T13:40:31;26.10;44.30
35127;DHT22;21300;52.006;5.798;2023-06-14T13:42:57;26.10;44.60
35127;DHT22;21300;52.006;5.798;2023-06-14T13:45:22;26.00;44.40
35127;DHT22;21300;52.006;5.798;2023-06-14T13:47:48;26.00;44.60
35127;DHT22;21300;52.006;5.798;2023-06-14T13:50:14;26.10;44.40
35127;DHT22;21300;52.006;5.798;2023-06-14T13:52:39;26.10;44.00
35127;DHT22;21300;52.006;5.798;2023-06-14T13:55:05;26.10;44.50
35127;DHT22;21300;52.006;5.798;2023-06-14T13:57:31;26.00;44.40
35127;DHT22;21300;52.006;5.798;2023-06-14T13:59:57;26.00;44.10
35127;DHT22;21300;52.006;5.798;2023-06-14T14:02:27;26.10;44.40
35127;DHT22;21300;52.006;5.798;2023-06-14T14:04:54;26.10;44.10
35127;DHT22;21300;52.006;5.798;2023-06-14T14:07:20;26.10;44.60
35127;DHT22;21300;52.006;5.798;2023-06-14T14:09:47;26.00;44.40
35127;DHT22;21300;52.006;5.798;2023-06-14T14:12:13;26.10;44.10
35127;DHT22;21300;52.006;5.798;2023-06-14T14:14:39;26.10;44.40
35127;DHT22;21300;52.006;5.798;2023-06-14T14:17:05;26.10;44.30
35127;DHT22;21300;52.006;5.798;2023-06-14T14:19:32;26.10;43.40
35127;DHT22;21300;52.006;5.798;2023-06-14T14:21:57;26.00;43.40
35127;DHT22;21300;52.006;5.798;2023-06-14T14:24:23;26.00;44.00
35127;DHT22;21300;52.006;5.798;2023-06-14T14:26:49;26.10;43.70
35127;DHT22;21300;52.006;5.798;2023-06-14T14:29:15;26.10;43.80
35127;DHT22;21300;52.006;5.798;2023-06-14T14:31:41;26.10;43.70
35127;DHT22;21300;52.006;5.798;2023-06-14T14:34:07;26.10;44.50
35127;DHT22;21300;52.006;5.798;2023-06-14T14:36:32;26.10;44.20
35127;DHT22;21300;52.006;5.798;2023-06-14T14:39:03;26.10;43.70
35127;DHT22;21300;52.006;5.798;2023-06-14T14:41:29;26.10;44.30
35127;DHT22;21300;52.006;5.798;2023-06-14T14:43:55;26.10;44.60
35127;DHT22;21300;52.006;5.798;2023-06-14T14:46:20;26.10;44.80
35127;DHT22;21300;52.006;5.798;2023-06-14T14:48:46;26.10;43.40
35127;DHT22;21300;52.006;5.798;2023-06-14T14:51:11;26.10;43.90
35127;DHT22;21300;52.006;5.798;2023-06-14T14:53:37;26.10;43.20
35127;DHT22;21300;52.006;5.798;2023-06-14T14:56:02;26.10;43.00
35127;DHT22;21300;52.006;5.798;2023-06-14T14:58:28;26.10;43.60
35127;DHT22;21300;52.006;5.798;2023-06-14T15:00:54;26.10;44.30
35127;DHT22;21300;52.006;5.798;2023-06-14T15:03:20;26.10;44.20
35127;DHT22;21300;52.006;5.798;2023-06-14T15:05:45;26.10;44.50
35127;DHT22;21300;52.006;5.798;2023-06-14T15:08:11;26.10;44.30
35127;DHT22;21300;52.006;5.798;2023-06-14T15:10:40;26.10;44.60
35127;DHT22;21300;52.006;5.798;2023-06-14T15:13:07;26.10;44.50
35127;DHT22;21300;52.006;5.798;2023-06-14T15:15:34;26.10;44.70
35127;DHT22;21300;52.006;5.798;2023-06-14T15:17:59;26.10;44.50
35127;DHT22;21300;52.006;5.798;2023-06-14T15:20:25;26.10;44.40
35127;DHT22;21300;52.006;5.798;2023-06-14T15:22:51;26.10;44.20
35127;DHT22;21300;52.006;5.798;2023-06-14T15:25:17;26.00;44.60
35127;DHT22;21300;52.006;5.798;2023-06-14T15:27:43;26.00;44.10
35127;DHT22;21300;52.006;5.798;2023-06-14T15:30:09;26.10;44.50
35127;DHT22;21300;52.006;5.798;2023-06-14T15:32:35;26.00;44.50
35127;DHT22;21300;52.006;5.798;2023-06-14T15:35:00;26.00;44.00
35127;DHT22;21300;52.006;5.798;2023-06-14T15:37:26;26.00;44.30
35127;DHT22;21300;52.006;5.798;2023-06-14T15:39:51;26.00;44.30
35127;DHT22;21300;52.006;5.798;2023-06-14T15:42:17;26.00;44.30
35127;DHT22;21300;52.006;5.798;2023-06-14T15:44:42;26.00;44.40
35127;DHT22;21300;52.006;5.798;2023-06-14T15:47:08;26.00;43.70